Friday Harbor, Washington
Current Conditions -  °F | °C
As of 3:53 PM on Thursday 27 Nov 2014 (Local Time) from KFHR Reporting Station
Overcast Overcast  
Wind Chill: 12°   Ceiling: 1900
Heat Index: 12°   Visibility: 10mi
Dew Point: 10°   Wind: 6mph
Humidity: 86%   Direction: 150°SSE
Pressure: 29.69"   Gusts: NA
Location:  48.53°N, 123.02°W
Report Text: KFHR 272353Z AUTO 15005KT 10SM BKN019 OVC026 12/10 A2969 RMK AO2 SLP055 60000 T01220100 10150 20117 55009
Loading
Personal Weather Stations






























Interactive Weather Map New forecast layout! Learn more

10-Day Weather Forecast

Advertisements
Track Severe Weather on mobile